SWA2521 PHKO-PHNL
Flight info
| Callsign | SWA2521 |
|---|---|
| Flight time | 0h 36m |
| Altitude | 16000 |
| Route | CRISI2 CRISI JULLE V20 HAUNA |
| Aircraft | B38M/M-SDE1FGHILORVWXY/HB1 |
Departure
| Time | 2026-04-26 15:36 |
|---|---|
| Airport | Ellison Onizuka Kona International Airport at Keāhole (PHKO) |
Arrival
| Time | 2026-04-26 16:12 |
|---|---|
| Airport | Daniel K. Inouye International Airport (PHNL) |
| Time | Latitude | Longitude | Altitude | Speed | Heading |
|---|---|---|---|---|---|
| 2026-04-26 14:59 | 19.73678 | -156.04225 | 47 ft | 0 kts | 95° |
| 2026-04-26 15:26 | 19.73679 | -156.04241 | 47 ft | 2 kts | 97° |
| 2026-04-26 15:26 | 19.73681 | -156.04258 | 45 ft | 2 kts | 99° |
| 2026-04-26 15:27 | 19.73684 | -156.04275 | 45 ft | 2 kts | 102° |
| 2026-04-26 15:27 | 19.73688 | -156.04292 | 40 ft | 2 kts | 108° |
| 2026-04-26 15:27 | 19.73694 | -156.04308 | 41 ft | 2 kts | 118° |
| 2026-04-26 15:27 | 19.73704 | -156.04321 | 43 ft | 2 kts | 150° |
| 2026-04-26 15:28 | 19.73719 | -156.04325 | 43 ft | 1 kts | 182° |
| 2026-04-26 15:28 | 19.73722 | -156.04325 | 43 ft | 0 kts | 183° |
| 2026-04-26 15:31 | 19.73663 | -156.04329 | 45 ft | 7 kts | 184° |
| 2026-04-26 15:31 | 19.73599 | -156.04335 | 46 ft | 10 kts | 184° |
| 2026-04-26 15:32 | 19.73400 | -156.04352 | 49 ft | 25 kts | 185° |
| 2026-04-26 15:32 | 19.73205 | -156.04369 | 52 ft | 20 kts | 186° |
| 2026-04-26 15:32 | 19.73078 | -156.04381 | 51 ft | 18 kts | 184° |
| 2026-04-26 15:33 | 19.72957 | -156.04392 | 50 ft | 16 kts | 185° |
| 2026-04-26 15:33 | 19.72866 | -156.04400 | 51 ft | 13 kts | 185° |
| 2026-04-26 15:33 | 19.72756 | -156.04410 | 50 ft | 18 kts | 185° |
| 2026-04-26 15:33 | 19.72617 | -156.04422 | 46 ft | 22 kts | 185° |
| 2026-04-26 15:34 | 19.72453 | -156.04437 | 45 ft | 20 kts | 186° |
| 2026-04-26 15:34 | 19.72348 | -156.04481 | 46 ft | 13 kts | 223° |
| 2026-04-26 15:34 | 19.72337 | -156.04536 | 46 ft | 7 kts | 300° |
| 2026-04-26 15:34 | 19.72365 | -156.04608 | 46 ft | 13 kts | 282° |
| 2026-04-26 15:35 | 19.72403 | -156.04682 | 48 ft | 12 kts | 327° |
| 2026-04-26 15:35 | 19.72539 | -156.04688 | 50 ft | 41 kts | 5° |
| 2026-04-26 15:35 | 19.73045 | -156.04642 | 47 ft | 110 kts | 5° |
| 2026-04-26 15:35 | 19.74015 | -156.04554 | 225 ft | 149 kts | 5° |
| 2026-04-26 15:36 | 19.75175 | -156.04483 | 219 ft | 190 kts | 3° |
| 2026-04-26 15:36 | 19.76522 | -156.04713 | 843 ft | 200 kts | 327° |
| 2026-04-26 15:36 | 19.77589 | -156.05574 | 1863 ft | 188 kts | 331° |
| 2026-04-26 15:36 | 19.78679 | -156.06403 | 2451 ft | 199 kts | 320° |
| 2026-04-26 15:37 | 19.79628 | -156.07546 | 2980 ft | 215 kts | 307° |
| 2026-04-26 15:37 | 19.80514 | -156.08905 | 3477 ft | 232 kts | 305° |
| 2026-04-26 15:37 | 19.81455 | -156.10349 | 3988 ft | 248 kts | 306° |
| 2026-04-26 15:37 | 19.82520 | -156.11913 | 4551 ft | 265 kts | 307° |
| 2026-04-26 15:38 | 19.83631 | -156.13536 | 5212 ft | 275 kts | 306° |
| 2026-04-26 15:38 | 19.84759 | -156.15199 | 6012 ft | 281 kts | 306° |
| 2026-04-26 15:38 | 19.85894 | -156.16879 | 6792 ft | 286 kts | 306° |
| 2026-04-26 15:38 | 19.87066 | -156.18609 | 7574 ft | 289 kts | 306° |
| 2026-04-26 15:39 | 19.88257 | -156.20366 | 8379 ft | 293 kts | 305° |
| 2026-04-26 15:39 | 19.89451 | -156.22128 | 9218 ft | 295 kts | 305° |
| 2026-04-26 15:39 | 19.90656 | -156.23909 | 10039 ft | 298 kts | 305° |
| 2026-04-26 15:39 | 19.91462 | -156.25100 | 10471 ft | 303 kts | 305° |
| 2026-04-26 15:40 | 19.93115 | -156.27542 | 11122 ft | 320 kts | 306° |
| 2026-04-26 15:40 | 19.94414 | -156.29461 | 11556 ft | 333 kts | 306° |
| 2026-04-26 15:40 | 19.95785 | -156.31488 | 12143 ft | 341 kts | 306° |
| 2026-04-26 15:40 | 19.97179 | -156.33552 | 12788 ft | 346 kts | 306° |
| 2026-04-26 15:41 | 19.98598 | -156.35651 | 13460 ft | 351 kts | 306° |
| 2026-04-26 15:41 | 20.00021 | -156.37757 | 14114 ft | 355 kts | 306° |
| 2026-04-26 15:41 | 20.01461 | -156.39890 | 14716 ft | 359 kts | 306° |
| 2026-04-26 15:41 | 20.02929 | -156.42064 | 15330 ft | 362 kts | 307° |
| 2026-04-26 15:42 | 20.04413 | -156.44262 | 15851 ft | 368 kts | 307° |
| 2026-04-26 15:42 | 20.05901 | -156.46470 | 16008 ft | 368 kts | 308° |
| 2026-04-26 15:42 | 20.07395 | -156.48685 | 15997 ft | 367 kts | 307° |
| 2026-04-26 15:42 | 20.08878 | -156.50886 | 16003 ft | 367 kts | 307° |
| 2026-04-26 15:43 | 20.10364 | -156.53091 | 16006 ft | 367 kts | 307° |
| 2026-04-26 15:43 | 20.11873 | -156.55332 | 16002 ft | 367 kts | 307° |
| 2026-04-26 15:43 | 20.14823 | -156.59714 | 16000 ft | 367 kts | 308° |
| 2026-04-26 15:44 | 20.16310 | -156.61935 | 16006 ft | 367 kts | 307° |
| 2026-04-26 15:44 | 20.16556 | -156.66496 | 15443 ft | 383 kts | 170° |
| 2026-04-26 15:44 | 20.14027 | -156.65782 | 15609 ft | 365 kts | 168° |
| 2026-04-26 15:45 | 20.09185 | -156.67175 | 15876 ft | 380 kts | 222° |
| 2026-04-26 15:45 | 20.07600 | -156.69417 | 16011 ft | 374 kts | 248° |
| 2026-04-26 15:46 | 20.07678 | -156.74765 | 16022 ft | 369 kts | 300° |
| 2026-04-26 15:46 | 20.09287 | -156.76836 | 16021 ft | 364 kts | 325° |
| 2026-04-26 15:46 | 20.11506 | -156.77994 | 16016 ft | 361 kts | 343° |
| 2026-04-26 15:46 | 20.13145 | -156.78471 | 16010 ft | 361 kts | 348° |
| 2026-04-26 15:47 | 20.16391 | -156.79163 | 16011 ft | 361 kts | 351° |
| 2026-04-26 15:47 | 20.21333 | -156.80117 | 16015 ft | 363 kts | 348° |
| 2026-04-26 15:47 | 20.23750 | -156.80799 | 16013 ft | 361 kts | 343° |
| 2026-04-26 15:48 | 20.26108 | -156.81736 | 16011 ft | 363 kts | 337° |
| 2026-04-26 15:48 | 20.28402 | -156.82954 | 16014 ft | 364 kts | 331° |
| 2026-04-26 15:48 | 20.30503 | -156.84386 | 16012 ft | 364 kts | 325° |
| 2026-04-26 15:48 | 20.32482 | -156.86098 | 16013 ft | 365 kts | 318° |
| 2026-04-26 15:49 | 20.34171 | -156.88120 | 16016 ft | 366 kts | 307° |
| 2026-04-26 15:49 | 20.35568 | -156.90363 | 16007 ft | 368 kts | 303° |
| 2026-04-26 15:49 | 20.36928 | -156.92715 | 16007 ft | 368 kts | 304° |
| 2026-04-26 15:49 | 20.38364 | -156.94937 | 16009 ft | 368 kts | 308° |
| 2026-04-26 15:50 | 20.39907 | -156.97105 | 16008 ft | 368 kts | 308° |
| 2026-04-26 15:50 | 20.41437 | -156.99334 | 16007 ft | 368 kts | 306° |
| 2026-04-26 15:50 | 20.42896 | -157.01579 | 16008 ft | 367 kts | 306° |
| 2026-04-26 15:50 | 20.44342 | -157.03784 | 16009 ft | 368 kts | 307° |
| 2026-04-26 15:51 | 20.45839 | -157.05990 | 16014 ft | 367 kts | 308° |
| 2026-04-26 15:51 | 20.47575 | -157.07979 | 16010 ft | 366 kts | 317° |
| 2026-04-26 15:51 | 20.49423 | -157.09845 | 16019 ft | 366 kts | 318° |
| 2026-04-26 15:51 | 20.51268 | -157.11711 | 16024 ft | 366 kts | 317° |
| 2026-04-26 15:52 | 20.53114 | -157.13606 | 16026 ft | 366 kts | 317° |
| 2026-04-26 15:52 | 20.54944 | -157.15489 | 16025 ft | 365 kts | 317° |
| 2026-04-26 15:52 | 20.56787 | -157.17371 | 16029 ft | 366 kts | 317° |
| 2026-04-26 15:52 | 20.58005 | -157.18614 | 16028 ft | 366 kts | 317° |
| 2026-04-26 15:53 | 20.60460 | -157.21127 | 16027 ft | 366 kts | 317° |
| 2026-04-26 15:53 | 20.62294 | -157.23009 | 16023 ft | 366 kts | 317° |
| 2026-04-26 15:53 | 20.64108 | -157.24867 | 16022 ft | 366 kts | 317° |
| 2026-04-26 15:53 | 20.65955 | -157.26759 | 16022 ft | 366 kts | 317° |
| 2026-04-26 15:54 | 20.67796 | -157.28647 | 16017 ft | 366 kts | 317° |
| 2026-04-26 15:54 | 20.69633 | -157.30532 | 16011 ft | 366 kts | 317° |
| 2026-04-26 15:54 | 20.71475 | -157.32421 | 16008 ft | 366 kts | 317° |
| 2026-04-26 15:54 | 20.73287 | -157.34281 | 16010 ft | 366 kts | 317° |
| 2026-04-26 15:55 | 20.75131 | -157.36175 | 16014 ft | 366 kts | 317° |
| 2026-04-26 15:55 | 20.76961 | -157.38055 | 16012 ft | 366 kts | 317° |
| 2026-04-26 15:55 | 20.78805 | -157.39949 | 16013 ft | 366 kts | 317° |
| 2026-04-26 15:55 | 20.80629 | -157.41824 | 16013 ft | 366 kts | 317° |
| 2026-04-26 15:56 | 20.82477 | -157.43725 | 16011 ft | 366 kts | 317° |
| 2026-04-26 15:56 | 20.84311 | -157.45611 | 16008 ft | 366 kts | 317° |
| 2026-04-26 15:56 | 20.86152 | -157.47505 | 16011 ft | 364 kts | 317° |
| 2026-04-26 15:56 | 20.87908 | -157.49315 | 15924 ft | 351 kts | 317° |
| 2026-04-26 15:57 | 20.89669 | -157.51128 | 15448 ft | 349 kts | 317° |
| 2026-04-26 15:57 | 20.91416 | -157.52926 | 14985 ft | 349 kts | 318° |
| 2026-04-26 15:57 | 20.93168 | -157.54731 | 14519 ft | 348 kts | 317° |
| 2026-04-26 15:57 | 20.93736 | -157.55317 | 14374 ft | 348 kts | 318° |
| 2026-04-26 15:58 | 20.96650 | -157.58321 | 13562 ft | 347 kts | 318° |
| 2026-04-26 15:58 | 20.98395 | -157.60091 | 13089 ft | 345 kts | 319° |
| 2026-04-26 15:58 | 21.00132 | -157.61834 | 12639 ft | 342 kts | 318° |
| 2026-04-26 15:58 | 21.01282 | -157.62995 | 12326 ft | 341 kts | 317° |
| 2026-04-26 15:59 | 21.03554 | -157.65306 | 11719 ft | 339 kts | 317° |
| 2026-04-26 15:59 | 21.05264 | -157.67044 | 11271 ft | 337 kts | 318° |
| 2026-04-26 15:59 | 21.06397 | -157.68192 | 10971 ft | 336 kts | 317° |
| 2026-04-26 15:59 | 21.08088 | -157.69919 | 10665 ft | 330 kts | 314° |
| 2026-04-26 16:00 | 21.09218 | -157.71967 | 10572 ft | 320 kts | 285° |
| 2026-04-26 16:00 | 21.09336 | -157.74297 | 10437 ft | 310 kts | 265° |
| 2026-04-26 16:00 | 21.09066 | -157.76571 | 10110 ft | 309 kts | 261° |
| 2026-04-26 16:00 | 21.08751 | -157.78852 | 9742 ft | 308 kts | 263° |
| 2026-04-26 16:01 | 21.08557 | -157.81135 | 9383 ft | 307 kts | 266° |
| 2026-04-26 16:01 | 21.08417 | -157.83396 | 9045 ft | 305 kts | 266° |
| 2026-04-26 16:01 | 21.08238 | -157.85658 | 8696 ft | 303 kts | 264° |
| 2026-04-26 16:01 | 21.08033 | -157.87899 | 8371 ft | 301 kts | 264° |
| 2026-04-26 16:02 | 21.07845 | -157.90095 | 8046 ft | 299 kts | 264° |
| 2026-04-26 16:02 | 21.07664 | -157.92336 | 7715 ft | 298 kts | 264° |
| 2026-04-26 16:02 | 21.07494 | -157.94505 | 7395 ft | 296 kts | 268° |
| 2026-04-26 16:02 | 21.07609 | -157.95982 | 7187 ft | 289 kts | 281° |
| 2026-04-26 16:03 | 21.08176 | -157.98737 | 6765 ft | 278 kts | 285° |
| 2026-04-26 16:03 | 21.08724 | -158.00664 | 6468 ft | 272 kts | 289° |
| 2026-04-26 16:03 | 21.09401 | -158.02546 | 6178 ft | 266 kts | 293° |
| 2026-04-26 16:03 | 21.10164 | -158.04273 | 5930 ft | 245 kts | 298° |
| 2026-04-26 16:04 | 21.10964 | -158.05799 | 5633 ft | 229 kts | 302° |
| 2026-04-26 16:04 | 21.11828 | -158.07214 | 5204 ft | 224 kts | 307° |
| 2026-04-26 16:04 | 21.12762 | -158.08546 | 4782 ft | 228 kts | 311° |
| 2026-04-26 16:04 | 21.13774 | -158.09808 | 4308 ft | 219 kts | 315° |
| 2026-04-26 16:05 | 21.14856 | -158.11008 | 3855 ft | 223 kts | 317° |
| 2026-04-26 16:05 | 21.16111 | -158.11844 | 3406 ft | 209 kts | 349° |
| 2026-04-26 16:05 | 21.17496 | -158.11794 | 3046 ft | 187 kts | 26° |
| 2026-04-26 16:05 | 21.18479 | -158.11070 | 3018 ft | 160 kts | 54° |
| 2026-04-26 16:06 | 21.19111 | -158.10188 | 3017 ft | 141 kts | 57° |
| 2026-04-26 16:06 | 21.19694 | -158.09361 | 3037 ft | 143 kts | 57° |
| 2026-04-26 16:06 | 21.20266 | -158.08549 | 3068 ft | 138 kts | 58° |
| 2026-04-26 16:06 | 21.20845 | -158.07725 | 3026 ft | 134 kts | 56° |
| 2026-04-26 16:07 | 21.21428 | -158.06896 | 2998 ft | 138 kts | 58° |
| 2026-04-26 16:07 | 21.21985 | -158.06109 | 2959 ft | 127 kts | 58° |
| 2026-04-26 16:07 | 21.22549 | -158.05302 | 2820 ft | 138 kts | 57° |
| 2026-04-26 16:07 | 21.23098 | -158.04525 | 2671 ft | 134 kts | 57° |
| 2026-04-26 16:08 | 21.23665 | -158.03717 | 2498 ft | 131 kts | 57° |
| 2026-04-26 16:08 | 21.24225 | -158.02920 | 2349 ft | 134 kts | 58° |
| 2026-04-26 16:08 | 21.24795 | -158.02108 | 2162 ft | 132 kts | 56° |
| 2026-04-26 16:08 | 21.25358 | -158.01308 | 2002 ft | 132 kts | 57° |
| 2026-04-26 16:09 | 21.25886 | -158.00560 | 2007 ft | 129 kts | 58° |
| 2026-04-26 16:09 | 21.26438 | -157.99771 | 2014 ft | 134 kts | 57° |
| 2026-04-26 16:09 | 21.26985 | -157.98995 | 1768 ft | 125 kts | 56° |
| 2026-04-26 16:09 | 21.27513 | -157.98243 | 1247 ft | 121 kts | 53° |
| 2026-04-26 16:10 | 21.28037 | -157.97495 | 1100 ft | 127 kts | 54° |
| 2026-04-26 16:10 | 21.28543 | -157.96775 | 952 ft | 135 kts | 53° |
| 2026-04-26 16:10 | 21.29098 | -157.95986 | 784 ft | 137 kts | 52° |
| 2026-04-26 16:10 | 21.29668 | -157.95175 | 593 ft | 137 kts | 52° |
| 2026-04-26 16:11 | 21.30224 | -157.94384 | 389 ft | 137 kts | 52° |
| 2026-04-26 16:11 | 21.30804 | -157.93556 | 175 ft | 139 kts | 52° |
| 2026-04-26 16:11 | 21.31374 | -157.92747 | 106 ft | 141 kts | 53° |
| 2026-04-26 16:11 | 21.31914 | -157.91965 | 12 ft | 118 kts | 52° |
| 2026-04-26 16:12 | 21.32338 | -157.91377 | 8 ft | 76 kts | 52° |
| 2026-04-26 16:12 | 21.32551 | -157.91075 | 12 ft | 22 kts | 53° |
| 2026-04-26 16:12 | 21.32656 | -157.90925 | 15 ft | 9 kts | 52° |
| 2026-04-26 16:13 | 21.32736 | -157.90813 | 13 ft | 28 kts | 52° |
| 2026-04-26 16:13 | 21.32810 | -157.90711 | 15 ft | 8 kts | 51° |
| 2026-04-26 16:13 | 21.32853 | -157.90668 | 13 ft | 8 kts | 32° |
| 2026-04-26 16:13 | 21.32902 | -157.90659 | 11 ft | 6 kts | 353° |
| 2026-04-26 16:14 | 21.32924 | -157.90672 | 10 ft | 6 kts | 324° |
| 2026-04-26 16:14 | 21.32989 | -157.90723 | 10 ft | 13 kts | 327° |
| 2026-04-26 16:14 | 21.33038 | -157.90796 | 11 ft | 0 kts | 279° |
| 2026-04-26 16:17 | 21.33038 | -157.90797 | 11 ft | 1 kts | 277° |
| 2026-04-26 16:17 | 21.33037 | -157.90840 | 12 ft | 9 kts | 265° |
| 2026-04-26 16:17 | 21.33023 | -157.90890 | 14 ft | 4 kts | 242° |
| 2026-04-26 16:17 | 21.33013 | -157.90908 | 14 ft | 6 kts | 239° |
| 2026-04-26 16:18 | 21.32972 | -157.90966 | 15 ft | 12 kts | 232° |
| 2026-04-26 16:18 | 21.32911 | -157.91054 | 15 ft | 0 kts | 233° |
| 2026-04-26 16:19 | 21.32889 | -157.91083 | 17 ft | 3 kts | 231° |
| 2026-04-26 16:19 | 21.32875 | -157.91101 | 15 ft | 3 kts | 232° |
| 2026-04-26 16:19 | 21.32853 | -157.91134 | 15 ft | 0 kts | 233° |
| 2026-04-26 16:20 | 21.32848 | -157.91141 | 15 ft | 6 kts | 233° |
| 2026-04-26 16:20 | 21.32787 | -157.91229 | 16 ft | 14 kts | 239° |
| 2026-04-26 16:20 | 21.32777 | -157.91250 | 16 ft | 13 kts | 245° |
| 2026-04-26 16:21 | 21.32775 | -157.91276 | 14 ft | 9 kts | 276° |
| 2026-04-26 16:21 | 21.32775 | -157.91308 | 13 ft | 6 kts | 268° |
| 2026-04-26 16:21 | 21.32774 | -157.91348 | 12 ft | 5 kts | 268° |
| 2026-04-26 16:21 | 21.32773 | -157.91378 | 12 ft | 0 kts | 269° |
| 2026-04-26 16:22 | 21.32773 | -157.91407 | 12 ft | 13 kts | 269° |
| 2026-04-26 16:22 | 21.32772 | -157.91512 | 13 ft | 8 kts | 270° |
| 2026-04-26 16:22 | 21.32773 | -157.91532 | 13 ft | 3 kts | 273° |
| 2026-04-26 16:22 | 21.32777 | -157.91548 | 13 ft | 0 kts | 301° |
| 2026-04-26 16:23 | 21.32783 | -157.91557 | 15 ft | 4 kts | 307° |
| 2026-04-26 16:23 | 21.32793 | -157.91567 | 14 ft | 0 kts | 323° |
| 2026-04-26 16:23 | 21.32807 | -157.91575 | 16 ft | 4 kts | 338° |
| 2026-04-26 16:23 | 21.32818 | -157.91577 | 16 ft | 0 kts | 350° |
| 2026-04-26 16:24 | 21.32860 | -157.91579 | 16 ft | 2 kts | 359° |
| 2026-04-26 16:24 | 21.32865 | -157.91579 | 16 ft | 2 kts | 359° |
| 2026-04-26 16:24 | 21.32881 | -157.91579 | 16 ft | 0 kts | 359° |